Christchurch, New Zealand
Current Conditions -  °F | °C
As of 12:30 AM on Friday 31 Oct 2014 (Local Time) from NZCH Reporting Station
Clear Clear  
Wind Chill: 16°   Ceiling: Unl
Heat Index: 16°   Visibility: 6mi
Dew Point:   Wind: 18mph
Humidity: 42%   Direction: 300°WNW
Pressure: 29.47"   Gusts: NA
Location:  43.53°S, 172.64°E
Report Text: NZCH 301230Z AUTO 30016KT 9999 NCD 16/03 Q0998 NOSIG
Loading
Personal Weather Stations






























Interactive Weather Map
Tropical Storm Tracking
New forecast layout! Learn more

10-Day Weather Forecast

Advertisements
Track Severe Weather on mobile